Tottenville, NY

3:24 PM EDT on September 01, 2014 (GMT -0400)
Main St and Amboy Ave | Change Station
CLOSE
Current Station
Personal Weather Station
Location: Woodbridge, NJ
Elevation: 43 ft
Nearby Weather Stations

Elev 43 ft 40.55 °N, 74.28 °W | Updated 1 second ago

Mostly Cloudy
Mostly Cloudy
91.6 °F
Feels Like 98 °F
N
0.0
Wind Variable Wind from SW
Gusts 7.0 mph

Today
High -- | Low -- °F
--% Chance of Precip.
Yesterday
High -- | Low -- °F
Precip. -- in
6:24 AM 7:28 PM
Waxing Crescent, 43% visible
Pressure 29.95 in
Visibility 10.0 miles
Clouds Mostly Cloudy 4600 ft
Mostly Cloudy 7000 ft
Overcast 8000 ft
Heat Index 98 °F
Dew Point 70 °F
Humidity 50%
Rainfall 0.00 in
Snow Depth Not available.
UV 2 out of 12
Pollen 5.00 out of 12
Ozone Good
PM2.5 Good
Flu Activity Not available.
METAR KLDJ 011915Z AUTO 24003KT 10SM BKN046 BKN070 OVC080 34/22 A2995 RMK AO2 T03370219

More Conditions Fewer Conditions

Pressure 29.95 in
Visibility 10.0 miles
Clouds Mostly Cloudy 4600 ft
Mostly Cloudy 7000 ft
Overcast 8000 ft
Heat Index 98 °F
Dew Point 70 °F
Humidity 50%
Rainfall 0.00 in
Snow Depth Not available.
UV 2 out of 12
Pollen 5.00 out of 12
Ozone Good
PM2.5 Good
Flu Activity Not available.
METAR KLDJ 011915Z AUTO 24003KT 10SM BKN046 BKN070 OVC080 34/22 A2995 RMK AO2 T03370219

More Conditions Fewer Conditions

10-Day Weather Forecast

Almanac

Astronomy

Sep. 01, 2014 Rise Set
Actual Time 6:24 AM EDT 7:28 PM EDT
Civil Twilight 5:56 AM EDT 7:56 PM EDT
Nautical Twilight 5:22 AM EDT 8:30 PM EDT
Astronomical Twilight 4:47 AM EDT 9:04 PM EDT
Moon 1:08 PM EDT 11:26 PM EDT
Length of Visible Light 14h 00m
Length of Day
13h 04m
Tomorrow will be 2m 35s shorter.
Waxing Crescent, 43% of the Moon is Illuminated
Today
Waxing Crescent
Sep 2
First Quarter
Sep 8
Full
Sep 15
Last Quarter
Sep 24
New

Today's Extremes

State Highs State Lows

Community

WunderPhotos

Upload Photos

1,749,378 photos uploaded!

WunderBlogs® & News

Nearby

Air Quality

  Air Quality AQ Index Pollutant
Yesterday Good
PM2.5
Yesterday Good
OZONE
Current Good
PM2.5
Current Good
OZONE
Monday Moderate
PM2.5
Monday Moderate
OZONE
Tuesday Moderate
OZONE
Tuesday Moderate
PM2.5

Snow Depth

Station Depth Elevation
No new snow has been reported.

Earthquake Activity

City Distance Mag. Time & Date
No recent earthquake activity has been reported nearby.
Minimum magnitude displayed is 2.5.

Coastal Water Temperatures

Place Temperature
Sandy Hook, NJ 77.0 °F
The Battery, NY 75.0 °F
Bergen Point West Reach, NJ 75.0 °F
Kings Point, NY 73.9 °F

Nearby Weather Stations